Time;durP1;ratioP1;P1;durP2;ratioP2;P2;SDS_P1;SDS_P2;PMS_P1;PMS_P2;Temp;Humidity;BMP_temperature;BMP_pressure;BME280_temperature;BME280_humidity;BME280_pressure;Samples;Min_cycle;Max_cycle;Signal;HPM_P1;HPM_P2
2022/07/04 00:00:16;;;;;;;4.83;2.93;;;22.70;1.00;;;;;;5008217;28;20183;-73
2022/07/04 00:02:44;;;;;;;7.77;2.90;;;22.60;1.00;;;;;;4994206;28;20812;-73
2022/07/04 00:05:11;;;;;;;8.23;3.30;;;22.60;1.00;;;;;;4983782;28;20456;-72
2022/07/04 00:07:37;;;;;;;9.17;3.43;;;22.50;1.00;;;;;;5014208;28;20556;-71
2022/07/04 00:10:08;;;;;;;8.40;3.50;;;22.50;1.00;;;;;;5015742;28;20467;-71
2022/07/04 00:12:33;;;;;;;8.50;3.63;;;22.40;1.00;;;;;;5016327;28;20429;-71
2022/07/04 00:15:00;;;;;;;5.90;3.30;;;22.50;1.00;;;;;;5008841;28;20472;-72
2022/07/04 00:17:25;;;;;;;11.13;3.30;;;22.40;1.00;;;;;;5007691;28;20260;-71
2022/07/04 00:19:51;;;;;;;10.00;3.27;;;22.40;1.00;;;;;;5006804;28;21077;-71
2022/07/04 00:22:16;;;;;;;7.27;3.20;;;22.40;1.00;;;;;;5007745;28;20252;-71
2022/07/04 00:24:42;;;;;;;7.23;3.43;;;22.30;1.00;;;;;;5008324;28;20284;-71
2022/07/04 00:27:08;;;;;;;5.60;3.10;;;22.20;1.00;;;;;;5013926;28;20288;-74
2022/07/04 00:29:33;;;;;;;11.33;3.93;;;22.20;1.00;;;;;;5003533;28;20185;-74
2022/07/04 00:31:59;;;;;;;8.97;3.43;;;24.40;1.00;;;;;;5008112;28;20216;-75
2022/07/04 00:34:54;;;;;;;9.70;3.40;;;22.20;1.00;;;;;;5014617;28;20185;-74
2022/07/04 00:37:19;;;;;;;8.97;3.43;;;22.20;1.00;;;;;;5001417;28;20459;-73
2022/07/04 00:39:45;;;;;;;5.03;3.00;;;22.10;1.00;;;;;;5006713;28;20433;-74
2022/07/04 00:42:10;;;;;;;6.00;3.30;;;22.10;1.00;;;;;;5013262;28;20214;-74
2022/07/04 00:44:36;;;;;;;7.00;3.03;;;22.00;1.00;;;;;;4989374;28;20196;-73
2022/07/04 00:47:03;;;;;;;5.13;3.30;;;22.00;1.00;;;;;;5008455;28;20257;-73
2022/07/04 00:49:29;;;;;;;4.90;3.73;;;22.00;1.00;;;;;;5007390;28;20292;-74
2022/07/04 00:51:54;;;;;;;5.60;3.30;;;22.00;1.00;;;;;;5024335;28;20552;-73
2022/07/04 00:54:21;;;;;;;5.27;3.17;;;22.30;1.00;;;;;;5007578;28;20655;-73
2022/07/04 00:56:47;;;;;;;4.53;3.20;;;21.90;1.00;;;;;;5009392;28;20233;-74
2022/07/04 00:59:13;;;;;;;4.83;3.30;;;21.80;1.00;;;;;;4994717;28;20460;-74
2022/07/04 01:01:39;;;;;;;6.63;3.40;;;21.70;1.00;;;;;;5016262;28;20181;-73
2022/07/04 01:04:05;;;;;;;6.07;3.63;;;21.70;1.00;;;;;;4999366;28;20181;-73
2022/07/04 01:06:32;;;;;;;7.83;3.40;;;21.60;1.00;;;;;;5008438;28;20472;-74
2022/07/04 01:08:59;;;;;;;5.70;3.30;;;21.60;1.00;;;;;;4986467;28;20938;-74
2022/07/04 01:11:25;;;;;;;5.47;3.40;;;21.60;1.00;;;;;;5013113;28;20942;-75
2022/07/04 01:13:50;;;;;;;5.63;3.47;;;21.50;1.00;;;;;;5002399;28;20429;-74
2022/07/04 01:16:16;;;;;;;7.37;3.50;;;21.60;1.00;;;;;;4997315;28;20229;-73
2022/07/04 01:18:42;;;;;;;5.30;3.70;;;21.50;1.00;;;;;;5006401;28;20742;-74
2022/07/04 01:21:08;;;;;;;9.00;3.10;;;21.50;1.00;;;;;;5018667;28;20681;-73
2022/07/04 01:23:38;;;;;;;3.83;3.27;;;21.50;1.00;;;;;;5010738;28;20240;-73
2022/07/04 01:26:04;;;;;;;9.90;3.27;;;21.40;1.00;;;;;;5003621;28;20530;-73
2022/07/04 01:28:30;;;;;;;12.80;3.00;;;21.40;1.00;;;;;;5009148;28;20789;-73
2022/07/04 01:30:55;;;;;;;7.43;3.60;;;21.40;1.00;;;;;;5005286;28;20186;-74
2022/07/04 01:33:21;;;;;;;4.13;3.20;;;21.30;1.00;;;;;;5005661;28;20262;-73
2022/07/04 01:35:47;;;;;;;10.77;3.30;;;21.30;1.00;;;;;;5006575;28;20201;-74
2022/07/04 01:38:13;;;;;;;5.00;3.00;;;21.30;1.00;;;;;;5000974;28;20647;-74
2022/07/04 01:40:38;;;;;;;9.73;3.50;;;21.20;1.00;;;;;;5006284;28;20488;-73
2022/07/04 01:43:04;;;;;;;4.30;3.13;;;;;;;;;;5008312;28;20182;-74
2022/07/04 01:45:34;;;;;;;6.53;2.97;;;21.10;1.00;;;;;;5008709;28;20206;-74
2022/07/04 01:48:00;;;;;;;6.13;3.27;;;21.10;1.00;;;;;;5004360;28;20201;-74
2022/07/04 01:50:25;;;;;;;4.90;2.90;;;21.10;1.00;;;;;;5026313;28;20412;-73
2022/07/04 01:52:51;;;;;;;6.43;2.77;;;21.00;1.00;;;;;;5016949;28;20463;-73
2022/07/04 01:55:16;;;;;;;6.00;2.97;;;21.00;1.00;;;;;;5009170;28;20210;-74
2022/07/04 01:57:42;;;;;;;10.03;3.20;;;21.00;1.00;;;;;;5012346;28;20549;-73
2022/07/04 02:02:54;;;;;;;8.03;3.20;;;20.90;1.00;;;;;;5024132;28;20508;-74
2022/07/04 02:05:20;;;;;;;4.80;2.50;;;20.90;1.00;;;;;;5024600;28;20439;-73
2022/07/04 02:07:45;;;;;;;6.40;2.83;;;20.90;1.00;;;;;;5006622;28;20464;-73
2022/07/04 02:10:11;;;;;;;3.63;2.70;;;20.90;1.00;;;;;;5006591;28;20186;-73
2022/07/04 02:15:21;;;;;;;3.40;2.33;;;20.90;1.00;;;;;;5018260;28;20276;-73
2022/07/04 02:17:47;;;;;;;6.50;2.73;;;20.90;1.00;;;;;;5009314;28;20898;-73
2022/07/04 02:20:13;;;;;;;3.70;2.50;;;20.80;1.00;;;;;;5014277;28;20645;-73
2022/07/04 02:22:39;;;;;;;10.33;2.70;;;20.80;1.00;;;;;;5012901;28;20653;-73
2022/07/04 02:25:05;;;;;;;9.80;2.83;;;20.70;1.00;;;;;;5011030;28;20547;-74
2022/07/04 02:27:30;;;;;;;6.17;2.60;;;20.70;1.00;;;;;;5014448;28;20213;-73
2022/07/04 02:29:56;;;;;;;6.80;2.80;;;20.70;1.00;;;;;;5012165;28;20181;-73
2022/07/04 02:32:21;;;;;;;5.20;2.90;;;20.60;1.00;;;;;;5022329;28;20250;-73
2022/07/04 02:34:47;;;;;;;3.90;2.80;;;20.60;1.00;;;;;;5009597;28;20680;-73
2022/07/04 02:37:13;;;;;;;4.43;2.73;;;20.60;1.00;;;;;;5004879;28;20184;-73
2022/07/04 02:39:38;;;;;;;3.53;2.70;;;20.50;1.00;;;;;;4998235;28;20189;-73
2022/07/04 02:42:04;;;;;;;5.77;2.93;;;20.60;1.00;;;;;;5015010;28;20177;-73
2022/07/04 02:44:30;;;;;;;6.17;3.10;;;20.50;1.00;;;;;;5007600;28;20178;-74
2022/07/04 02:46:55;;;;;;;6.03;2.80;;;21.40;1.00;;;;;;5009764;28;20267;-74
2022/07/04 02:49:21;;;;;;;4.50;2.83;;;20.50;1.00;;;;;;5006249;28;20717;-73
2022/07/04 02:51:46;;;;;;;7.57;3.10;;;20.50;1.00;;;;;;5021713;28;20189;-73
2022/07/04 02:54:12;;;;;;;4.57;2.80;;;20.40;1.00;;;;;;5008310;28;20188;-73
2022/07/04 02:56:38;;;;;;;3.77;2.77;;;20.40;1.00;;;;;;5028053;28;20206;-73
2022/07/04 02:59:03;;;;;;;5.30;2.90;;;20.30;1.00;;;;;;5003476;28;20266;-73
2022/07/04 03:01:29;;;;;;;4.40;2.80;;;20.20;1.00;;;;;;5023356;28;20640;-73
2022/07/04 03:03:54;;;;;;;4.70;3.03;;;20.20;1.00;;;;;;5008883;28;20289;-73
2022/07/04 03:06:20;;;;;;;3.13;2.37;;;20.20;1.00;;;;;;5006882;28;20205;-73
2022/07/04 03:08:45;;;;;;;7.10;3.00;;;20.50;1.00;;;;;;5022397;28;20628;-73
2022/07/04 03:11:11;;;;;;;6.77;2.53;;;20.20;1.00;;;;;;5019805;28;20491;-74
2022/07/04 03:13:38;;;;;;;4.33;2.93;;;20.20;1.00;;;;;;4998158;28;20665;-73
2022/07/04 03:16:04;;;;;;;8.20;3.13;;;20.20;1.00;;;;;;5017328;28;20197;-73
2022/07/04 03:18:30;;;;;;;4.57;2.60;;;20.20;1.00;;;;;;5006339;28;20479;-73
2022/07/04 03:20:55;;;;;;;3.50;2.53;;;20.10;1.00;;;;;;5028506;28;20819;-73
2022/07/04 03:23:21;;;;;;;7.07;2.70;;;20.10;1.00;;;;;;5024913;28;20227;-73
2022/07/04 03:25:46;;;;;;;6.47;3.10;;;20.10;1.00;;;;;;5008933;28;20243;-73
2022/07/04 03:28:12;;;;;;;6.73;4.27;;;20.00;1.00;;;;;;5017810;28;20202;-73
2022/07/04 03:30:37;;;;;;;3.80;2.97;;;20.00;1.00;;;;;;5005182;28;20181;-73
2022/07/04 03:33:03;;;;;;;5.70;2.90;;;20.00;1.00;;;;;;5028373;28;20360;-73
2022/07/04 03:35:29;;;;;;;4.53;3.00;;;20.00;1.00;;;;;;5014630;28;20259;-73
2022/07/04 03:37:55;;;;;;;5.60;2.80;;;20.00;1.00;;;;;;5029345;28;20173;-73
2022/07/04 03:40:21;;;;;;;6.00;3.13;;;20.00;1.00;;;;;;5007306;28;20182;-73
2022/07/04 03:42:47;;;;;;;3.80;2.60;;;19.90;1.00;;;;;;5023093;28;20424;-73
2022/07/04 03:45:13;;;;;;;6.57;2.87;;;19.90;1.00;;;;;;4996501;28;20493;-73
2022/07/04 03:47:39;;;;;;;4.73;2.80;;;19.90;1.00;;;;;;4999341;28;20347;-73
2022/07/04 03:50:05;;;;;;;7.50;2.97;;;19.90;1.00;;;;;;4994480;28;20492;-73
2022/07/04 03:52:31;;;;;;;3.40;2.53;;;19.90;1.00;;;;;;5025740;28;20223;-72
2022/07/04 03:54:57;;;;;;;3.57;2.80;;;19.90;1.00;;;;;;5021701;28;20892;-73
2022/07/04 03:57:22;;;;;;;4.00;3.00;;;19.90;1.00;;;;;;5009179;28;20637;-73
2022/07/04 03:59:48;;;;;;;6.07;2.90;;;19.80;1.00;;;;;;4987258;28;20618;-73
2022/07/04 04:02:13;;;;;;;4.73;2.80;;;19.90;1.00;;;;;;5018763;28;20252;-73
2022/07/04 04:07:23;;;;;;;6.40;3.03;;;19.90;1.00;;;;;;5024343;28;20213;-73
2022/07/04 04:09:48;;;;;;;5.30;2.80;;;19.90;1.00;;;;;;4996818;28;20430;-73
2022/07/04 04:12:14;;;;;;;3.53;2.90;;;19.90;1.00;;;;;;5014845;28;20601;-73
2022/07/04 04:14:39;;;;;;;5.70;3.03;;;19.70;1.00;;;;;;5012671;28;20301;-73
2022/07/04 04:17:05;;;;;;;8.60;3.30;;;19.90;1.00;;;;;;4991319;28;20261;-73
2022/07/04 04:19:30;;;;;;;4.13;2.77;;;19.90;1.00;;;;;;5000329;28;20315;-74
2022/07/04 04:21:56;;;;;;;5.60;2.80;;;19.80;1.00;;;;;;5007327;28;20220;-73
2022/07/04 04:24:21;;;;;;;4.30;2.93;;;19.80;1.00;;;;;;5017455;28;20285;-73
2022/07/04 04:26:47;;;;;;;4.50;2.97;;;19.90;1.00;;;;;;5009209;28;20735;-74
2022/07/04 04:29:13;;;;;;;5.73;3.10;;;19.90;1.00;;;;;;5008708;28;20644;-73
2022/07/04 04:31:38;;;;;;;3.50;2.70;;;19.90;1.00;;;;;;5021267;28;20181;-73
2022/07/04 04:34:04;;;;;;;8.53;3.10;;;19.90;1.00;;;;;;5007192;28;20264;-73
2022/07/04 04:36:29;;;;;;;4.00;2.90;;;19.90;1.00;;;;;;5003979;28;20352;-74
2022/07/04 04:38:55;;;;;;;5.43;3.23;;;19.90;1.00;;;;;;5000348;28;20569;-73
2022/07/04 04:41:20;;;;;;;3.03;2.53;;;19.90;1.00;;;;;;5014230;28;20284;-73
2022/07/04 04:43:46;;;;;;;8.90;2.90;;;19.90;1.00;;;;;;5010549;28;20171;-73
2022/07/04 04:46:11;;;;;;;9.47;3.20;;;19.90;1.00;;;;;;5006204;28;20333;-73
2022/07/04 04:48:37;;;;;;;4.13;2.87;;;20.00;1.00;;;;;;5001281;28;20201;-73
2022/07/04 04:51:03;;;;;;;6.17;3.03;;;20.00;1.00;;;;;;5013656;28;20178;-74
2022/07/04 04:53:29;;;;;;;5.57;3.00;;;20.00;1.00;;;;;;5012704;28;20636;-73
2022/07/04 04:55:55;;;;;;;5.53;3.17;;;20.00;1.00;;;;;;4989619;28;20718;-73
2022/07/04 04:58:22;;;;;;;4.40;3.03;;;20.00;1.00;;;;;;4989532;28;20417;-73
2022/07/04 05:00:49;;;;;;;4.50;2.97;;;20.00;1.00;;;;;;5008587;28;20597;-73
2022/07/04 05:03:15;;;;;;;5.27;2.90;;;20.10;1.00;;;;;;5015377;28;20440;-73
2022/07/04 05:05:41;;;;;;;6.80;3.30;;;20.10;1.00;;;;;;5010408;28;21192;-73
2022/07/04 05:08:07;;;;;;;5.00;3.40;;;20.10;1.00;;;;;;5015931;28;20457;-73
2022/07/04 05:10:32;;;;;;;9.60;3.50;;;20.10;1.00;;;;;;5001785;28;20669;-74
2022/07/04 05:12:58;;;;;;;7.33;3.10;;;20.10;1.00;;;;;;5019086;28;20180;-73
2022/07/04 05:15:23;;;;;;;10.43;3.60;;;20.30;1.00;;;;;;5006714;28;20193;-73
2022/07/04 05:17:50;;;;;;;3.53;2.80;;;20.10;1.00;;;;;;5005162;28;20804;-73
2022/07/04 05:20:15;;;;;;;6.90;3.27;;;20.10;1.00;;;;;;4993513;28;20173;-73
2022/07/04 05:22:41;;;;;;;6.00;3.40;;;20.20;1.00;;;;;;5012538;28;20443;-73
2022/07/04 05:25:07;;;;;;;6.10;3.23;;;20.20;1.00;;;;;;5007626;28;20209;-73
2022/07/04 05:27:32;;;;;;;7.90;3.67;;;20.20;1.00;;;;;;5014696;28;20201;-74
2022/07/04 05:29:58;;;;;;;10.10;3.30;;;20.20;1.00;;;;;;5014865;28;20181;-73
2022/07/04 05:32:25;;;;;;;4.93;3.50;;;20.20;1.00;;;;;;5007056;28;20276;-73
2022/07/04 05:34:50;;;;;;;6.03;3.30;;;20.20;1.00;;;;;;5026282;28;20247;-73
2022/07/04 05:37:16;;;;;;;6.00;3.50;;;20.30;1.00;;;;;;5015237;28;20433;-73
2022/07/04 05:39:41;;;;;;;10.13;3.70;;;20.30;1.00;;;;;;4989338;28;20178;-73
2022/07/04 05:42:07;;;;;;;6.63;3.57;;;20.40;1.00;;;;;;5006718;28;20170;-74
2022/07/04 05:44:32;;;;;;;5.80;3.17;;;20.50;1.00;;;;;;5014042;28;20591;-73
2022/07/04 05:46:58;;;;;;;16.03;3.70;;;20.50;1.00;;;;;;5015445;28;20204;-78
2022/07/04 05:49:23;;;;;;;5.23;3.00;;;20.70;1.00;;;;;;5018270;28;20181;-78
2022/07/04 05:51:49;;;;;;;7.50;3.80;;;21.00;1.00;;;;;;5018125;28;20545;-78
2022/07/04 05:54:14;;;;;;;6.33;3.20;;;21.10;1.00;;;;;;5011178;28;20632;-78
2022/07/04 05:56:41;;;;;;;5.90;3.20;;;21.20;1.00;;;;;;5009786;28;20612;-80
2022/07/04 05:59:08;;;;;;;5.23;3.37;;;21.20;1.00;;;;;;5001747;28;20227;-79
2022/07/04 06:01:33;;;;;;;6.70;3.20;;;21.30;1.00;;;;;;5019971;28;20431;-78
2022/07/04 06:03:59;;;;;;;5.87;3.47;;;21.30;1.00;;;;;;5007458;28;20962;-78
2022/07/04 06:06:24;;;;;;;6.30;3.00;;;21.30;1.00;;;;;;5012002;28;20702;-78
2022/07/04 06:08:50;;;;;;;7.40;3.70;;;21.40;1.00;;;;;;4999286;28;20182;-77
2022/07/04 06:11:17;;;;;;;5.73;3.80;;;21.50;1.00;;;;;;4993531;28;20234;-78
2022/07/04 06:13:43;;;;;;;11.53;3.40;;;21.60;1.00;;;;;;5009120;28;20239;-73
2022/07/04 06:16:08;;;;;;;4.57;3.50;;;21.60;1.00;;;;;;4988180;28;20975;-74
2022/07/04 06:18:34;;;;;;;5.60;3.33;;;21.50;1.00;;;;;;5007569;28;20181;-74
2022/07/04 06:20:59;;;;;;;6.23;3.37;;;21.40;1.00;;;;;;5015281;28;20190;-73
2022/07/04 06:23:25;;;;;;;13.17;3.50;;;21.50;1.00;;;;;;5014236;28;20213;-73
2022/07/04 06:25:50;;;;;;;8.50;3.30;;;21.50;1.00;;;;;;5011877;28;20198;-78
2022/07/04 06:28:17;;;;;;;4.30;3.20;;;21.60;1.00;;;;;;5021381;28;20271;-80
2022/07/04 06:30:42;;;;;;;3.83;3.00;;;21.80;1.00;;;;;;5002463;28;20174;-78
2022/07/04 06:33:08;;;;;;;4.20;3.17;;;22.00;1.00;;;;;;5010619;28;21045;-79
2022/07/04 06:35:45;;;;;;;8.07;3.10;;;22.10;1.00;;;;;;5025148;28;20596;-79
2022/07/04 06:38:18;;;;;;;4.80;3.30;;;22.20;1.00;;;;;;5014506;28;20177;-79
2022/07/04 06:40:45;;;;;;;4.00;2.73;;;22.50;1.00;;;;;;5016073;28;20492;-78
2022/07/04 06:43:10;;;;;;;4.17;2.80;;;22.30;1.00;;;;;;5004438;28;20441;-78
2022/07/04 06:45:36;;;;;;;8.50;3.00;;;22.40;1.00;;;;;;5006351;28;20464;-74
2022/07/04 06:48:03;;;;;;;6.37;3.23;;;22.50;1.00;;;;;;5000904;28;20190;-72
2022/07/04 06:50:32;;;;;;;6.47;3.20;;;22.50;1.00;;;;;;5005675;28;20178;-74
2022/07/04 06:53:05;;;;;;;5.43;3.77;;;22.50;1.00;;;;;;5005907;28;20531;-74
2022/07/04 06:55:31;;;;;;;6.00;3.40;;;22.50;1.00;;;;;;5010921;28;20444;-73
2022/07/04 06:57:57;;;;;;;7.77;3.60;;;22.60;1.00;;;;;;5013604;28;20437;-73
2022/07/04 07:00:23;;;;;;;4.00;3.13;;;22.60;1.00;;;;;;5008255;28;20425;-73
2022/07/04 07:02:48;;;;;;;7.17;3.10;;;22.70;1.00;;;;;;5009376;28;20661;-74
2022/07/04 07:05:14;;;;;;;5.73;3.57;;;22.80;1.00;;;;;;5006830;28;20209;-74
2022/07/04 07:07:39;;;;;;;4.53;3.10;;;25.40;1.00;;;;;;5011176;28;20201;-73
2022/07/04 07:10:06;;;;;;;7.03;3.73;;;22.90;1.00;;;;;;5007546;28;20184;-74
2022/07/04 07:12:33;;;;;;;5.53;3.17;;;22.90;1.00;;;;;;5011239;28;20185;-74
2022/07/04 07:14:59;;;;;;;4.93;3.10;;;23.30;1.00;;;;;;5011944;28;20538;-74
2022/07/04 07:17:25;;;;;;;9.90;3.20;;;22.90;1.00;;;;;;5004302;28;20938;-74
2022/07/04 07:19:50;;;;;;;5.30;3.43;;;23.00;1.00;;;;;;5019836;28;20523;-73
2022/07/04 07:22:16;;;;;;;6.67;3.30;;;23.10;1.00;;;;;;5011976;28;20656;-74
2022/07/04 07:24:42;;;;;;;4.70;3.10;;;23.20;1.00;;;;;;5007556;28;20274;-73
2022/07/04 07:27:08;;;;;;;8.30;3.33;;;23.30;1.00;;;;;;5011649;28;20515;-73
2022/07/04 07:29:34;;;;;;;7.63;3.00;;;23.30;1.00;;;;;;5006570;28;20183;-73
2022/07/04 07:32:00;;;;;;;4.77;3.23;;;23.50;1.00;;;;;;5012086;28;20494;-72
2022/07/04 07:34:26;;;;;;;3.60;2.93;;;23.70;1.00;;;;;;5013397;28;20444;-74
2022/07/04 07:36:52;;;;;;;4.60;3.00;;;23.80;1.00;;;;;;5022383;28;20580;-73
2022/07/04 07:39:17;;;;;;;5.90;2.97;;;24.00;1.00;;;;;;5017220;28;20174;-73
2022/07/04 07:41:43;;;;;;;5.07;3.07;;;;;;;;;;5018059;28;20260;-74
2022/07/04 07:44:09;;;;;;;4.30;3.10;;;24.00;1.00;;;;;;4997892;28;20553;-74
2022/07/04 07:46:34;;;;;;;5.00;3.07;;;24.10;1.00;;;;;;5008229;28;20468;-74
2022/07/04 07:49:00;;;;;;;5.07;3.00;;;24.30;1.00;;;;;;5009244;28;20182;-73
2022/07/04 07:51:26;;;;;;;4.80;3.40;;;;;;;;;;5015691;28;20524;-74
2022/07/04 07:53:52;;;;;;;10.17;2.87;;;24.80;1.00;;;;;;5029437;28;20240;-73
2022/07/04 07:56:18;;;;;;;4.70;3.13;;;25.00;1.00;;;;;;5023144;28;20988;-74
2022/07/04 07:58:43;;;;;;;5.80;3.40;;;25.20;1.00;;;;;;5007320;28;20458;-74
2022/07/04 08:01:09;;;;;;;5.30;3.30;;;25.60;1.00;;;;;;5010683;28;20181;-74
2022/07/04 08:06:18;;;;;;;6.10;2.90;;;25.60;1.00;;;;;;5018658;28;20404;-73
2022/07/04 08:08:44;;;;;;;5.17;3.57;;;25.50;1.00;;;;;;5016256;28;20429;-74
2022/07/04 08:11:11;;;;;;;8.00;3.27;;;25.60;1.00;;;;;;5009872;28;20664;-74
2022/07/04 08:13:37;;;;;;;5.37;3.10;;;25.60;1.00;;;;;;5008818;28;20679;-74
2022/07/04 08:16:03;;;;;;;8.73;3.23;;;25.60;1.00;;;;;;4998989;28;20459;-74
2022/07/04 08:18:29;;;;;;;6.10;3.20;;;25.60;1.00;;;;;;4990185;28;20959;-73
2022/07/04 08:20:55;;;;;;;6.00;3.40;;;25.70;1.00;;;;;;5012268;28;20185;-74
2022/07/04 08:23:20;;;;;;;7.57;3.40;;;25.60;1.00;;;;;;5015241;28;20269;-74
2022/07/04 08:25:46;;;;;;;4.67;3.13;;;25.90;1.00;;;;;;4991088;28;20217;-73
2022/07/04 08:28:12;;;;;;;5.43;3.10;;;26.00;1.00;;;;;;5010969;28;20680;-73
2022/07/04 08:30:38;;;;;;;5.20;3.60;;;26.30;1.00;;;;;;4999914;28;20576;-74
2022/07/04 08:33:04;;;;;;;4.40;2.63;;;26.40;1.00;;;;;;5006003;28;20433;-74
2022/07/04 08:35:29;;;;;;;5.30;3.00;;;26.70;1.00;;;;;;5017060;28;20201;-74
2022/07/04 08:37:55;;;;;;;7.33;3.30;;;26.90;1.00;;;;;;5008366;28;20185;-74
2022/07/04 08:40:26;;;;;;;4.10;2.70;;;26.90;1.00;;;;;;5009521;28;20228;-74
2022/07/04 08:42:53;;;;;;;5.50;3.03;;;26.90;1.00;;;;;;5006390;28;20641;-74
2022/07/04 08:45:33;;;;;;;4.27;2.80;;;27.30;1.00;;;;;;5010625;28;20472;-74
2022/07/04 08:48:06;;;;;;;6.17;2.90;;;27.10;1.00;;;;;;5006896;28;20202;-74
2022/07/04 08:50:51;;;;;;;8.27;2.80;;;27.30;1.00;;;;;;5004636;28;20650;-73
2022/07/04 08:53:19;;;;;;;8.10;2.60;;;27.50;1.00;;;;;;5013535;28;20439;-74
2022/07/04 08:58:31;;;;;;;3.03;2.30;;;28.00;1.00;;;;;;5015835;28;20534;-74
2022/07/04 09:00:58;;;;;;;5.73;2.90;;;28.20;1.00;;;;;;4991424;28;20192;-74
2022/07/04 09:03:24;;;;;;;20.00;3.47;;;28.20;1.00;;;;;;4988813;28;20188;-74
2022/07/04 09:05:51;;;;;;;5.37;2.87;;;28.50;1.00;;;;;;5005738;28;20649;-73
2022/07/04 09:08:16;;;;;;;3.23;2.70;;;28.70;1.00;;;;;;4990900;28;20273;-74
2022/07/04 09:10:42;;;;;;;5.27;2.70;;;29.00;1.00;;;;;;5008802;28;20284;-74
2022/07/04 09:13:09;;;;;;;4.73;2.70;;;29.80;1.00;;;;;;5007274;28;20180;-74
2022/07/04 09:15:35;;;;;;;4.80;2.70;;;30.50;1.00;;;;;;4992765;28;20198;-74
2022/07/04 09:18:01;;;;;;;3.92;2.45;;;31.30;1.00;;;;;;5005103;28;20186;-75
2022/07/04 09:20:29;;;;;;;3.85;2.25;;;32.00;1.00;;;;;;5014729;28;20181;-74
2022/07/04 09:22:55;;;;;;;8.35;2.55;;;33.20;1.00;;;;;;5010198;28;20203;-75
2022/07/04 09:25:22;;;;;;;6.53;2.75;;;34.20;1.00;;;;;;5013282;28;20691;-75
2022/07/04 09:27:50;;;;;;;4.85;2.50;;;35.00;1.00;;;;;;5013635;28;20198;-75
2022/07/04 09:30:23;;;;;;;4.82;2.45;;;35.60;1.00;;;;;;5013871;28;20181;-75
2022/07/04 09:32:59;;;;;;;3.20;1.98;;;35.80;1.00;;;;;;4999325;28;20190;-75
2022/07/04 09:35:26;;;;;;;8.10;2.20;;;36.00;1.00;;;;;;5014376;28;20201;-75
2022/07/04 09:37:57;;;;;;;6.15;2.22;;;35.80;1.00;;;;;;5014638;28;20634;-75
2022/07/04 09:40:28;;;;;;;5.30;2.30;;;35.80;1.00;;;;;;4991944;28;20222;-75
2022/07/04 09:43:10;;;;;;;3.20;2.25;;;36.40;1.00;;;;;;5017890;28;20185;-75
2022/07/04 09:45:52;;;;;;;4.03;2.00;;;37.00;1.00;;;;;;5014850;28;20304;-75
2022/07/04 09:48:17;;;;;;;4.10;2.17;;;37.10;1.00;;;;;;5003133;28;20275;-75
2022/07/04 09:50:43;;;;;;;5.15;2.25;;;37.40;1.00;;;;;;5007614;28;20217;-75
2022/07/04 09:53:09;;;;;;;5.93;2.20;;;37.60;1.00;;;;;;5006250;28;20252;-75
2022/07/04 09:55:39;;;;;;;3.17;1.98;;;38.00;1.00;;;;;;5017723;28;20219;-76
2022/07/04 09:58:08;;;;;;;3.05;2.10;;;38.60;1.00;;;;;;5008888;28;20182;-75
2022/07/04 10:00:35;;;;;;;4.22;2.00;;;39.00;1.00;;;;;;5008736;28;20649;-76
2022/07/04 10:03:21;;;;;;;3.05;1.70;;;39.10;1.00;;;;;;4997874;28;20186;-76
2022/07/04 10:06:06;;;;;;;4.90;1.88;;;39.70;1.00;;;;;;5008861;28;20225;-76
2022/07/04 10:08:33;;;;;;;5.43;2.00;;;39.90;1.00;;;;;;5022064;28;20288;-77
2022/07/04 10:11:00;;;;;;;3.53;2.00;;;37.70;1.00;;;;;;5007677;28;20170;-77
2022/07/04 10:13:26;;;;;;;6.13;2.05;;;40.00;1.00;;;;;;5006177;28;20174;-76
2022/07/04 10:15:52;;;;;;;4.68;2.17;;;39.10;1.00;;;;;;5013907;28;20213;-75
2022/07/04 10:18:19;;;;;;;4.20;1.95;;;39.10;1.00;;;;;;5013308;28;20175;-76
2022/07/04 10:20:46;;;;;;;3.13;2.00;;;39.80;1.00;;;;;;5004583;28;20174;-78
2022/07/04 10:23:12;;;;;;;3.38;1.85;;;40.30;1.00;;;;;;5006228;28;20170;-75
2022/07/04 10:25:39;;;;;;;5.10;1.90;;;41.00;1.00;;;;;;5007320;28;20259;-76
2022/07/04 10:28:05;;;;;;;3.60;1.63;;;40.50;1.00;;;;;;5010263;28;20232;-76
2022/07/04 10:30:33;;;;;;;4.82;2.10;;;40.40;1.00;;;;;;5024670;28;20208;-76
2022/07/04 10:33:01;;;;;;;2.67;1.85;;;40.00;1.00;;;;;;5012958;28;20177;-75
2022/07/04 10:35:53;;;;;;;2.65;1.90;;;40.20;1.00;;;;;;4992599;28;20260;-75
2022/07/04 10:38:23;;;;;;;5.00;2.00;;;40.80;1.00;;;;;;5005609;28;20576;-76
2022/07/04 10:40:56;;;;;;;4.53;1.70;;;41.10;1.00;;;;;;5019234;28;20193;-76
2022/07/04 10:46:02;;;;;;;5.57;1.92;;;41.90;1.00;;;;;;5016071;28;20475;-75
2022/07/04 10:48:28;;;;;;;4.75;2.10;;;42.40;1.00;;;;;;5014051;28;20684;-76
2022/07/04 10:51:01;;;;;;;2.72;1.90;;;42.80;1.00;;;;;;5018026;28;20181;-75
2022/07/04 10:53:27;;;;;;;5.47;1.95;;;42.80;1.00;;;;;;5011049;28;20360;-76
2022/07/04 10:55:52;;;;;;;6.63;1.92;;;43.10;1.00;;;;;;5019386;28;20198;-75
2022/07/04 10:58:41;;;;;;;3.78;2.13;;;42.90;1.00;;;;;;5025470;28;20272;-78
2022/07/04 11:01:17;;;;;;;3.58;1.90;;;43.30;1.00;;;;;;5009798;28;20178;-76
2022/07/04 11:03:53;;;;;;;2.95;1.90;;;43.40;1.00;;;;;;5014672;28;20193;-76
2022/07/04 11:06:35;;;;;;;3.05;1.77;;;43.50;1.00;;;;;;5013067;28;20684;-76
2022/07/04 11:09:16;;;;;;;4.60;1.98;;;43.80;1.00;;;;;;5013006;28;20508;-75
2022/07/04 11:11:55;;;;;;;4.38;1.80;;;43.60;1.00;;;;;;4996719;28;20221;-76
2022/07/04 11:14:31;;;;;;;3.70;1.90;;;43.20;1.00;;;;;;5006083;28;20166;-75
2022/07/04 11:16:56;;;;;;;7.70;2.00;;;42.80;1.00;;;;;;5009818;28;20197;-76
2022/07/04 11:19:22;;;;;;;4.35;2.10;;;42.70;1.00;;;;;;5010359;28;20186;-76
2022/07/04 11:21:48;;;;;;;5.35;1.85;;;42.40;1.00;;;;;;5019032;28;20192;-75
2022/07/04 11:24:13;;;;;;;3.55;1.63;;;42.40;1.00;;;;;;5015321;28;20534;-75
2022/07/04 11:26:39;;;;;;;3.10;1.80;;;42.80;1.00;;;;;;5011545;28;20641;-76
2022/07/04 11:29:05;;;;;;;4.35;2.10;;;43.00;1.00;;;;;;5017389;28;20610;-76
2022/07/04 11:31:41;;;;;;;4.15;1.70;;;42.70;1.00;;;;;;5009411;28;20198;-76
2022/07/04 11:34:07;;;;;;;4.35;1.70;;;42.90;1.00;;;;;;5007225;28;20650;-76
2022/07/04 11:36:34;;;;;;;3.22;1.70;;;42.60;1.00;;;;;;4989203;28;20197;-77
2022/07/04 11:39:02;;;;;;;4.63;1.85;;;42.00;1.00;;;;;;5014655;28;20173;-76
2022/07/04 11:47:12;;;;;;;3.45;1.95;;;39.20;1.00;;;;;;5015324;28;20319;-75
2022/07/04 11:49:44;;;;;;;3.10;2.00;;;39.10;1.00;;;;;;5020115;28;20166;-76
2022/07/04 11:52:10;;;;;;;4.65;2.00;;;38.80;1.00;;;;;;5013492;28;20181;-76
2022/07/04 11:54:36;;;;;;;5.40;1.95;;;37.90;1.00;;;;;;5010984;28;20229;-75
2022/07/04 11:57:13;;;;;;;3.88;1.90;;;37.10;1.00;;;;;;5011432;28;20225;-75
2022/07/04 11:59:39;;;;;;;5.00;1.67;;;37.00;1.00;;;;;;5011619;28;20194;-75
2022/07/04 12:02:15;;;;;;;2.55;1.55;;;37.10;1.00;;;;;;5010010;28;20177;-75
2022/07/04 12:04:42;;;;;;;5.60;1.70;;;37.00;1.00;;;;;;5014400;28;20185;-76
2022/07/04 12:07:13;;;;;;;4.32;1.80;;;36.90;1.00;;;;;;5014324;28;20212;-75
2022/07/04 12:09:39;;;;;;;4.10;1.90;;;36.70;1.00;;;;;;5016122;28;20297;-75
2022/07/04 12:12:05;;;;;;;3.72;1.90;;;37.60;1.00;;;;;;5000994;28;20177;-75
2022/07/04 12:14:30;;;;;;;3.63;1.90;;;38.20;1.00;;;;;;5018057;28;20166;-75
2022/07/04 12:17:17;;;;;;;3.00;1.70;;;38.50;1.00;;;;;;5007825;28;20201;-75
2022/07/04 12:19:54;;;;;;;5.63;1.70;;;38.60;1.00;;;;;;5011995;28;20190;-75
2022/07/04 12:22:41;;;;;;;3.13;1.90;;;39.10;1.00;;;;;;4992528;28;20186;-75
2022/07/04 12:25:18;;;;;;;4.25;1.80;;;39.70;1.00;;;;;;4991052;28;20325;-76
2022/07/04 12:28:01;;;;;;;7.25;2.00;;;39.80;1.00;;;;;;5014052;28;20197;-75
2022/07/04 12:30:29;;;;;;;4.35;1.90;;;40.10;1.00;;;;;;4997519;28;20585;-75
2022/07/04 12:33:03;;;;;;;2.63;1.73;;;40.30;1.00;;;;;;5012818;28;20194;-75
2022/07/04 12:35:47;;;;;;;2.20;1.58;;;40.10;1.00;;;;;;4997022;28;20696;-75
2022/07/04 12:38:15;;;;;;;2.58;1.60;;;40.20;1.00;;;;;;5005586;28;20245;-75
2022/07/04 12:41:07;;;;;;;2.90;1.67;;;39.80;1.00;;;;;;4998678;28;20631;-75
2022/07/04 12:43:42;;;;;;;5.40;1.90;;;39.00;1.00;;;;;;5009114;28;20178;-76
2022/07/04 12:46:31;;;;;;;3.05;1.58;;;39.60;1.00;;;;;;5009085;28;20197;-75
2022/07/04 12:48:57;;;;;;;3.55;1.90;;;40.40;1.00;;;;;;5007207;28;20250;-75
2022/07/04 12:51:28;;;;;;;2.90;1.77;;;41.20;1.00;;;;;;5015935;28;20182;-76
2022/07/04 12:53:55;;;;;;;3.95;1.75;;;43.50;1.00;;;;;;5012878;28;20197;-75
2022/07/04 12:56:38;;;;;;;4.22;1.67;;;43.50;1.00;;;;;;4993805;28;20204;-75
2022/07/04 12:59:06;;;;;;;3.22;1.70;;;43.60;1.00;;;;;;5011372;28;20283;-75
2022/07/04 13:01:32;;;;;;;5.28;1.60;;;42.80;1.00;;;;;;5009324;28;20174;-76
2022/07/04 13:03:59;;;;;;;3.15;1.50;;;41.80;1.00;;;;;;4996782;28;20225;-76
2022/07/04 13:06:25;;;;;;;3.13;1.55;;;42.10;1.00;;;;;;5014876;28;20296;-76
2022/07/04 13:08:51;;;;;;;3.42;1.60;;;42.50;1.00;;;;;;5017806;28;20173;-76
2022/07/04 13:14:01;;;;;;;3.10;1.60;;;43.50;1.00;;;;;;5008279;28;20544;-75
2022/07/04 13:16:26;;;;;;;3.83;1.65;;;44.30;1.00;;;;;;5005717;28;20268;-76
2022/07/04 13:18:52;;;;;;;4.43;1.80;;;44.70;1.00;;;;;;5000438;28;20460;-76
2022/07/04 13:21:17;;;;;;;5.05;1.88;;;44.20;1.00;;;;;;4995432;28;20174;-76
2022/07/04 13:23:43;;;;;;;5.90;1.73;;;43.90;1.00;;;;;;5015164;28;20283;-77